sensor_id;sensor_type;location;lat;lon;timestamp;P1;durP1;ratioP1;P2;durP2;ratioP2
76107;SDS011;64834;52.516;10.528;2023-05-03T00:01:58;2.80;;;1.40;;
76107;SDS011;64834;52.516;10.528;2023-05-03T00:04:26;4.60;;;1.63;;
76107;SDS011;64834;52.516;10.528;2023-05-03T00:06:51;3.88;;;1.48;;
76107;SDS011;64834;52.516;10.528;2023-05-03T00:09:16;3.25;;;1.58;;
76107;SDS011;64834;52.516;10.528;2023-05-03T00:11:42;5.68;;;1.85;;
76107;SDS011;64834;52.516;10.528;2023-05-03T00:14:07;4.15;;;1.52;;
76107;SDS011;64834;52.516;10.528;2023-05-03T00:16:32;2.67;;;1.40;;
76107;SDS011;64834;52.516;10.528;2023-05-03T00:18:58;3.47;;;1.60;;
76107;SDS011;64834;52.516;10.528;2023-05-03T00:21:23;5.85;;;1.40;;
76107;SDS011;64834;52.516;10.528;2023-05-03T00:23:48;3.25;;;1.35;;
76107;SDS011;64834;52.516;10.528;2023-05-03T00:26:14;3.72;;;1.67;;
76107;SDS011;64834;52.516;10.528;2023-05-03T00:28:40;2.45;;;1.73;;
76107;SDS011;64834;52.516;10.528;2023-05-03T00:31:06;3.85;;;1.55;;
76107;SDS011;64834;52.516;10.528;2023-05-03T00:33:32;3.03;;;1.33;;
76107;SDS011;64834;52.516;10.528;2023-05-03T00:35:57;3.58;;;1.58;;
76107;SDS011;64834;52.516;10.528;2023-05-03T00:38:23;3.05;;;1.52;;
76107;SDS011;64834;52.516;10.528;2023-05-03T00:40:54;3.38;;;2.03;;
76107;SDS011;64834;52.516;10.528;2023-05-03T00:43:19;3.63;;;1.85;;
76107;SDS011;64834;52.516;10.528;2023-05-03T00:45:45;3.97;;;1.80;;
76107;SDS011;64834;52.516;10.528;2023-05-03T00:48:11;6.22;;;1.88;;
76107;SDS011;64834;52.516;10.528;2023-05-03T00:50:36;6.03;;;2.00;;
76107;SDS011;64834;52.516;10.528;2023-05-03T00:53:03;3.85;;;2.47;;
76107;SDS011;64834;52.516;10.528;2023-05-03T00:55:29;6.32;;;1.85;;
76107;SDS011;64834;52.516;10.528;2023-05-03T00:57:57;3.15;;;1.75;;
76107;SDS011;64834;52.516;10.528;2023-05-03T01:00:22;4.78;;;2.38;;
76107;SDS011;64834;52.516;10.528;2023-05-03T01:02:48;3.80;;;1.88;;
76107;SDS011;64834;52.516;10.528;2023-05-03T01:05:14;5.82;;;1.70;;
76107;SDS011;64834;52.516;10.528;2023-05-03T01:07:55;4.82;;;1.65;;
76107;SDS011;64834;52.516;10.528;2023-05-03T01:10:41;3.08;;;1.73;;
76107;SDS011;64834;52.516;10.528;2023-05-03T01:16:20;3.17;;;1.42;;
76107;SDS011;64834;52.516;10.528;2023-05-03T01:18:53;3.05;;;1.60;;
76107;SDS011;64834;52.516;10.528;2023-05-03T01:21:19;4.28;;;2.10;;
76107;SDS011;64834;52.516;10.528;2023-05-03T01:23:52;2.97;;;1.45;;
76107;SDS011;64834;52.516;10.528;2023-05-03T01:26:24;5.72;;;2.17;;
76107;SDS011;64834;52.516;10.528;2023-05-03T01:28:51;4.97;;;1.80;;
76107;SDS011;64834;52.516;10.528;2023-05-03T01:34:34;4.82;;;1.67;;
76107;SDS011;64834;52.516;10.528;2023-05-03T01:37:05;3.45;;;1.58;;
76107;SDS011;64834;52.516;10.528;2023-05-03T01:39:34;3.25;;;2.00;;
76107;SDS011;64834;52.516;10.528;2023-05-03T01:42:36;3.10;;;1.83;;
76107;SDS011;64834;52.516;10.528;2023-05-03T01:45:03;4.22;;;1.70;;
76107;SDS011;64834;52.516;10.528;2023-05-03T01:47:29;3.83;;;1.70;;
76107;SDS011;64834;52.516;10.528;2023-05-03T01:49:54;2.95;;;1.50;;
76107;SDS011;64834;52.516;10.528;2023-05-03T01:52:20;3.03;;;1.65;;
76107;SDS011;64834;52.516;10.528;2023-05-03T01:54:45;4.20;;;1.60;;
76107;SDS011;64834;52.516;10.528;2023-05-03T01:57:11;3.63;;;1.67;;
76107;SDS011;64834;52.516;10.528;2023-05-03T01:59:36;3.25;;;1.50;;
76107;SDS011;64834;52.516;10.528;2023-05-03T02:02:01;3.97;;;1.77;;
76107;SDS011;64834;52.516;10.528;2023-05-03T02:04:27;5.72;;;2.30;;
76107;SDS011;64834;52.516;10.528;2023-05-03T02:06:53;5.25;;;1.80;;
76107;SDS011;64834;52.516;10.528;2023-05-03T02:09:19;4.03;;;2.22;;
76107;SDS011;64834;52.516;10.528;2023-05-03T02:11:44;3.38;;;1.52;;
76107;SDS011;64834;52.516;10.528;2023-05-03T02:14:10;4.60;;;2.17;;
76107;SDS011;64834;52.516;10.528;2023-05-03T02:16:36;4.15;;;1.85;;
76107;SDS011;64834;52.516;10.528;2023-05-03T02:19:01;6.00;;;1.88;;
76107;SDS011;64834;52.516;10.528;2023-05-03T02:21:27;2.75;;;1.48;;
76107;SDS011;64834;52.516;10.528;2023-05-03T02:23:52;4.70;;;1.67;;
76107;SDS011;64834;52.516;10.528;2023-05-03T02:26:18;3.17;;;1.70;;
76107;SDS011;64834;52.516;10.528;2023-05-03T02:28:44;3.97;;;1.75;;
76107;SDS011;64834;52.516;10.528;2023-05-03T02:31:10;5.03;;;2.10;;
76107;SDS011;64834;52.516;10.528;2023-05-03T02:33:36;5.00;;;2.40;;
76107;SDS011;64834;52.516;10.528;2023-05-03T02:36:02;4.38;;;2.03;;
76107;SDS011;64834;52.516;10.528;2023-05-03T02:38:27;4.38;;;2.10;;
76107;SDS011;64834;52.516;10.528;2023-05-03T02:40:52;4.72;;;1.85;;
76107;SDS011;64834;52.516;10.528;2023-05-03T02:43:17;4.50;;;1.73;;
76107;SDS011;64834;52.516;10.528;2023-05-03T02:45:43;3.63;;;2.17;;
76107;SDS011;64834;52.516;10.528;2023-05-03T02:48:08;4.35;;;2.30;;
76107;SDS011;64834;52.516;10.528;2023-05-03T02:50:34;3.40;;;1.92;;
76107;SDS011;64834;52.516;10.528;2023-05-03T02:53:00;3.75;;;2.25;;
76107;SDS011;64834;52.516;10.528;2023-05-03T02:55:25;4.30;;;2.00;;
76107;SDS011;64834;52.516;10.528;2023-05-03T02:57:51;4.70;;;2.08;;
76107;SDS011;64834;52.516;10.528;2023-05-03T03:00:16;5.45;;;2.13;;
76107;SDS011;64834;52.516;10.528;2023-05-03T03:02:41;4.88;;;2.00;;
76107;SDS011;64834;52.516;10.528;2023-05-03T03:05:07;4.65;;;2.22;;
76107;SDS011;64834;52.516;10.528;2023-05-03T03:07:33;3.83;;;1.80;;
76107;SDS011;64834;52.516;10.528;2023-05-03T03:09:58;4.55;;;2.10;;
76107;SDS011;64834;52.516;10.528;2023-05-03T03:12:24;6.20;;;2.50;;
76107;SDS011;64834;52.516;10.528;2023-05-03T03:14:51;7.15;;;2.60;;
76107;SDS011;64834;52.516;10.528;2023-05-03T03:17:16;3.92;;;2.20;;
76107;SDS011;64834;52.516;10.528;2023-05-03T03:19:42;5.55;;;2.33;;
76107;SDS011;64834;52.516;10.528;2023-05-03T03:22:07;14.00;;;2.50;;
76107;SDS011;64834;52.516;10.528;2023-05-03T03:24:32;4.00;;;2.35;;
76107;SDS011;64834;52.516;10.528;2023-05-03T03:26:58;5.60;;;2.75;;
76107;SDS011;64834;52.516;10.528;2023-05-03T03:29:23;5.18;;;2.40;;
76107;SDS011;64834;52.516;10.528;2023-05-03T03:31:48;5.13;;;2.17;;
76107;SDS011;64834;52.516;10.528;2023-05-03T03:34:14;3.83;;;2.33;;
76107;SDS011;64834;52.516;10.528;2023-05-03T03:36:39;4.85;;;2.40;;
76107;SDS011;64834;52.516;10.528;2023-05-03T03:39:04;3.92;;;2.15;;
76107;SDS011;64834;52.516;10.528;2023-05-03T03:41:33;5.00;;;2.30;;
76107;SDS011;64834;52.516;10.528;2023-05-03T03:43:58;6.15;;;2.42;;
76107;SDS011;64834;52.516;10.528;2023-05-03T03:46:24;7.00;;;2.40;;
76107;SDS011;64834;52.516;10.528;2023-05-03T03:48:49;6.63;;;2.55;;
76107;SDS011;64834;52.516;10.528;2023-05-03T03:51:15;6.38;;;2.55;;
76107;SDS011;64834;52.516;10.528;2023-05-03T03:53:40;4.38;;;2.30;;
76107;SDS011;64834;52.516;10.528;2023-05-03T03:56:05;6.32;;;2.85;;
76107;SDS011;64834;52.516;10.528;2023-05-03T03:58:32;5.28;;;2.45;;
76107;SDS011;64834;52.516;10.528;2023-05-03T04:00:57;5.35;;;2.35;;
76107;SDS011;64834;52.516;10.528;2023-05-03T04:03:22;5.88;;;2.50;;
76107;SDS011;64834;52.516;10.528;2023-05-03T04:05:49;4.90;;;2.38;;
76107;SDS011;64834;52.516;10.528;2023-05-03T04:08:14;5.65;;;2.40;;
76107;SDS011;64834;52.516;10.528;2023-05-03T04:10:40;6.57;;;2.90;;
76107;SDS011;64834;52.516;10.528;2023-05-03T04:13:05;5.13;;;2.25;;
76107;SDS011;64834;52.516;10.528;2023-05-03T04:15:30;7.82;;;2.47;;
76107;SDS011;64834;52.516;10.528;2023-05-03T04:17:56;6.80;;;2.80;;
76107;SDS011;64834;52.516;10.528;2023-05-03T04:20:21;4.28;;;2.35;;
76107;SDS011;64834;52.516;10.528;2023-05-03T04:22:47;5.53;;;2.42;;
76107;SDS011;64834;52.516;10.528;2023-05-03T04:25:12;7.97;;;2.88;;
76107;SDS011;64834;52.516;10.528;2023-05-03T04:27:38;5.90;;;2.58;;
76107;SDS011;64834;52.516;10.528;2023-05-03T04:30:04;4.50;;;2.60;;
76107;SDS011;64834;52.516;10.528;2023-05-03T04:32:30;4.30;;;2.60;;
76107;SDS011;64834;52.516;10.528;2023-05-03T04:35:01;4.68;;;2.28;;
76107;SDS011;64834;52.516;10.528;2023-05-03T04:37:33;4.97;;;2.40;;
76107;SDS011;64834;52.516;10.528;2023-05-03T04:39:59;3.75;;;2.28;;
76107;SDS011;64834;52.516;10.528;2023-05-03T04:42:24;3.95;;;2.33;;
76107;SDS011;64834;52.516;10.528;2023-05-03T04:44:50;4.32;;;2.00;;
76107;SDS011;64834;52.516;10.528;2023-05-03T04:47:16;6.95;;;2.42;;
76107;SDS011;64834;52.516;10.528;2023-05-03T04:49:42;6.05;;;2.63;;
76107;SDS011;64834;52.516;10.528;2023-05-03T04:52:07;5.05;;;2.47;;
76107;SDS011;64834;52.516;10.528;2023-05-03T04:54:34;4.97;;;2.50;;
76107;SDS011;64834;52.516;10.528;2023-05-03T04:56:59;11.10;;;2.88;;
76107;SDS011;64834;52.516;10.528;2023-05-03T04:59:24;5.18;;;2.20;;
76107;SDS011;64834;52.516;10.528;2023-05-03T05:01:50;4.50;;;2.22;;
76107;SDS011;64834;52.516;10.528;2023-05-03T05:04:15;7.40;;;2.50;;
76107;SDS011;64834;52.516;10.528;2023-05-03T05:06:40;4.13;;;1.90;;
76107;SDS011;64834;52.516;10.528;2023-05-03T05:09:06;4.30;;;2.10;;
76107;SDS011;64834;52.516;10.528;2023-05-03T05:11:31;5.80;;;2.50;;
76107;SDS011;64834;52.516;10.528;2023-05-03T05:13:57;5.15;;;2.47;;
76107;SDS011;64834;52.516;10.528;2023-05-03T05:16:23;5.88;;;2.40;;
76107;SDS011;64834;52.516;10.528;2023-05-03T05:18:48;5.07;;;2.20;;
76107;SDS011;64834;52.516;10.528;2023-05-03T05:21:13;5.43;;;2.58;;
76107;SDS011;64834;52.516;10.528;2023-05-03T05:23:39;6.47;;;2.40;;
76107;SDS011;64834;52.516;10.528;2023-05-03T05:26:04;5.57;;;2.30;;
76107;SDS011;64834;52.516;10.528;2023-05-03T05:28:29;6.32;;;2.70;;
76107;SDS011;64834;52.516;10.528;2023-05-03T05:30:55;4.85;;;2.45;;
76107;SDS011;64834;52.516;10.528;2023-05-03T05:33:20;7.35;;;2.47;;
76107;SDS011;64834;52.516;10.528;2023-05-03T05:35:46;5.28;;;2.55;;
76107;SDS011;64834;52.516;10.528;2023-05-03T05:38:12;6.28;;;2.45;;
76107;SDS011;64834;52.516;10.528;2023-05-03T05:40:37;4.45;;;2.78;;
76107;SDS011;64834;52.516;10.528;2023-05-03T05:43:03;4.95;;;2.45;;
76107;SDS011;64834;52.516;10.528;2023-05-03T05:45:28;5.95;;;2.85;;
76107;SDS011;64834;52.516;10.528;2023-05-03T05:47:54;7.65;;;2.78;;
76107;SDS011;64834;52.516;10.528;2023-05-03T05:50:19;4.38;;;2.38;;
76107;SDS011;64834;52.516;10.528;2023-05-03T05:52:45;4.47;;;2.53;;
76107;SDS011;64834;52.516;10.528;2023-05-03T05:55:10;7.07;;;2.38;;
76107;SDS011;64834;52.516;10.528;2023-05-03T05:57:38;4.40;;;2.40;;
76107;SDS011;64834;52.516;10.528;2023-05-03T06:00:04;7.32;;;2.72;;
76107;SDS011;64834;52.516;10.528;2023-05-03T06:02:38;6.68;;;1.98;;
76107;SDS011;64834;52.516;10.528;2023-05-03T06:05:03;8.70;;;2.58;;
76107;SDS011;64834;52.516;10.528;2023-05-03T06:07:30;4.40;;;1.95;;
76107;SDS011;64834;52.516;10.528;2023-05-03T06:09:55;5.05;;;1.90;;
76107;SDS011;64834;52.516;10.528;2023-05-03T06:12:20;5.00;;;2.05;;
76107;SDS011;64834;52.516;10.528;2023-05-03T06:14:46;5.90;;;1.67;;
76107;SDS011;64834;52.516;10.528;2023-05-03T06:17:11;5.80;;;1.85;;
76107;SDS011;64834;52.516;10.528;2023-05-03T06:19:36;4.47;;;1.80;;
76107;SDS011;64834;52.516;10.528;2023-05-03T06:22:02;4.95;;;2.00;;
76107;SDS011;64834;52.516;10.528;2023-05-03T06:24:29;4.43;;;2.00;;
76107;SDS011;64834;52.516;10.528;2023-05-03T06:26:56;8.52;;;2.00;;
76107;SDS011;64834;52.516;10.528;2023-05-03T06:29:22;5.30;;;1.55;;
76107;SDS011;64834;52.516;10.528;2023-05-03T06:31:48;2.97;;;1.52;;
76107;SDS011;64834;52.516;10.528;2023-05-03T06:34:15;4.93;;;1.55;;
76107;SDS011;64834;52.516;10.528;2023-05-03T06:36:44;5.88;;;1.58;;
76107;SDS011;64834;52.516;10.528;2023-05-03T06:39:09;3.88;;;1.35;;
76107;SDS011;64834;52.516;10.528;2023-05-03T06:41:35;7.03;;;1.70;;
76107;SDS011;64834;52.516;10.528;2023-05-03T06:44:00;4.72;;;1.67;;
76107;SDS011;64834;52.516;10.528;2023-05-03T06:46:29;4.32;;;1.52;;
76107;SDS011;64834;52.516;10.528;2023-05-03T06:48:54;8.77;;;1.67;;
76107;SDS011;64834;52.516;10.528;2023-05-03T06:51:21;6.57;;;1.75;;
76107;SDS011;64834;52.516;10.528;2023-05-03T06:53:55;4.22;;;1.70;;
76107;SDS011;64834;52.516;10.528;2023-05-03T06:56:21;5.40;;;1.70;;
76107;SDS011;64834;52.516;10.528;2023-05-03T06:58:47;5.18;;;1.70;;
76107;SDS011;64834;52.516;10.528;2023-05-03T07:01:12;4.85;;;1.60;;
76107;SDS011;64834;52.516;10.528;2023-05-03T07:03:37;5.40;;;1.70;;
76107;SDS011;64834;52.516;10.528;2023-05-03T07:06:03;3.78;;;1.52;;
76107;SDS011;64834;52.516;10.528;2023-05-03T07:08:29;4.95;;;1.77;;
76107;SDS011;64834;52.516;10.528;2023-05-03T07:10:55;5.35;;;1.45;;
76107;SDS011;64834;52.516;10.528;2023-05-03T07:13:20;3.35;;;1.40;;
76107;SDS011;64834;52.516;10.528;2023-05-03T07:15:45;5.28;;;1.60;;
76107;SDS011;64834;52.516;10.528;2023-05-03T07:18:11;5.53;;;1.35;;
76107;SDS011;64834;52.516;10.528;2023-05-03T07:20:36;5.32;;;1.55;;
76107;SDS011;64834;52.516;10.528;2023-05-03T07:23:01;2.78;;;1.05;;
76107;SDS011;64834;52.516;10.528;2023-05-03T07:25:27;4.88;;;1.48;;
76107;SDS011;64834;52.516;10.528;2023-05-03T07:27:52;7.00;;;1.90;;
76107;SDS011;64834;52.516;10.528;2023-05-03T07:30:18;6.55;;;1.30;;
76107;SDS011;64834;52.516;10.528;2023-05-03T07:32:43;7.30;;;1.45;;
76107;SDS011;64834;52.516;10.528;2023-05-03T07:35:09;4.75;;;0.90;;
76107;SDS011;64834;52.516;10.528;2023-05-03T07:37:34;4.95;;;1.40;;
76107;SDS011;64834;52.516;10.528;2023-05-03T07:40:02;5.35;;;1.25;;
76107;SDS011;64834;52.516;10.528;2023-05-03T07:42:30;3.15;;;1.65;;
76107;SDS011;64834;52.516;10.528;2023-05-03T07:44:56;4.60;;;1.05;;
76107;SDS011;64834;52.516;10.528;2023-05-03T07:47:21;2.58;;;1.05;;
76107;SDS011;64834;52.516;10.528;2023-05-03T07:49:46;3.40;;;1.13;;
76107;SDS011;64834;52.516;10.528;2023-05-03T07:52:14;4.53;;;1.13;;
76107;SDS011;64834;52.516;10.528;2023-05-03T07:54:40;2.22;;;0.98;;
76107;SDS011;64834;52.516;10.528;2023-05-03T07:57:06;4.80;;;1.13;;
76107;SDS011;64834;52.516;10.528;2023-05-03T07:59:32;6.15;;;0.90;;
76107;SDS011;64834;52.516;10.528;2023-05-03T08:01:57;3.22;;;0.98;;
76107;SDS011;64834;52.516;10.528;2023-05-03T08:04:23;4.07;;;1.05;;
76107;SDS011;64834;52.516;10.528;2023-05-03T08:06:48;3.78;;;1.25;;
76107;SDS011;64834;52.516;10.528;2023-05-03T08:09:13;4.18;;;1.23;;
76107;SDS011;64834;52.516;10.528;2023-05-03T08:11:39;4.65;;;1.35;;
76107;SDS011;64834;52.516;10.528;2023-05-03T08:14:05;4.22;;;1.27;;
76107;SDS011;64834;52.516;10.528;2023-05-03T08:16:30;3.90;;;0.82;;
76107;SDS011;64834;52.516;10.528;2023-05-03T08:18:56;3.38;;;1.25;;
76107;SDS011;64834;52.516;10.528;2023-05-03T08:21:22;1.83;;;0.93;;
76107;SDS011;64834;52.516;10.528;2023-05-03T08:23:50;5.40;;;1.25;;
76107;SDS011;64834;52.516;10.528;2023-05-03T08:26:15;2.55;;;1.15;;
76107;SDS011;64834;52.516;10.528;2023-05-03T08:28:41;6.57;;;1.40;;
76107;SDS011;64834;52.516;10.528;2023-05-03T08:31:06;3.58;;;1.10;;
76107;SDS011;64834;52.516;10.528;2023-05-03T08:33:32;3.97;;;0.98;;
76107;SDS011;64834;52.516;10.528;2023-05-03T08:35:57;2.35;;;1.10;;
76107;SDS011;64834;52.516;10.528;2023-05-03T08:38:22;2.15;;;1.13;;
76107;SDS011;64834;52.516;10.528;2023-05-03T08:40:49;3.55;;;1.00;;
76107;SDS011;64834;52.516;10.528;2023-05-03T08:43:16;3.85;;;1.38;;
76107;SDS011;64834;52.516;10.528;2023-05-03T08:45:44;4.32;;;1.20;;
76107;SDS011;64834;52.516;10.528;2023-05-03T08:48:10;3.53;;;1.27;;
76107;SDS011;64834;52.516;10.528;2023-05-03T08:50:36;4.53;;;1.52;;
76107;SDS011;64834;52.516;10.528;2023-05-03T08:53:06;4.20;;;1.08;;
76107;SDS011;64834;52.516;10.528;2023-05-03T08:55:32;2.28;;;0.95;;
76107;SDS011;64834;52.516;10.528;2023-05-03T08:57:58;1.92;;;0.95;;
76107;SDS011;64834;52.516;10.528;2023-05-03T09:00:27;4.60;;;1.30;;
76107;SDS011;64834;52.516;10.528;2023-05-03T09:02:57;2.65;;;1.10;;
76107;SDS011;64834;52.516;10.528;2023-05-03T09:08:09;2.13;;;1.15;;
76107;SDS011;64834;52.516;10.528;2023-05-03T09:10:37;3.55;;;0.90;;
76107;SDS011;64834;52.516;10.528;2023-05-03T09:13:04;3.63;;;1.02;;
76107;SDS011;64834;52.516;10.528;2023-05-03T09:15:31;3.97;;;1.42;;
76107;SDS011;64834;52.516;10.528;2023-05-03T09:18:06;3.38;;;1.00;;
76107;SDS011;64834;52.516;10.528;2023-05-03T09:20:45;2.95;;;1.20;;
76107;SDS011;64834;52.516;10.528;2023-05-03T09:25:52;5.50;;;1.42;;
76107;SDS011;64834;52.516;10.528;2023-05-03T09:28:18;2.20;;;1.17;;
76107;SDS011;64834;52.516;10.528;2023-05-03T09:30:45;2.03;;;1.25;;
76107;SDS011;64834;52.516;10.528;2023-05-03T09:33:11;6.07;;;1.25;;
76107;SDS011;64834;52.516;10.528;2023-05-03T09:35:56;4.10;;;1.60;;
76107;SDS011;64834;52.516;10.528;2023-05-03T09:38:32;3.72;;;1.10;;
76107;SDS011;64834;52.516;10.528;2023-05-03T09:40:59;3.25;;;1.65;;
76107;SDS011;64834;52.516;10.528;2023-05-03T09:43:25;3.85;;;1.55;;
76107;SDS011;64834;52.516;10.528;2023-05-03T09:45:50;5.55;;;1.48;;
76107;SDS011;64834;52.516;10.528;2023-05-03T09:48:16;3.33;;;1.33;;
76107;SDS011;64834;52.516;10.528;2023-05-03T09:50:42;3.92;;;1.20;;
76107;SDS011;64834;52.516;10.528;2023-05-03T09:53:08;3.83;;;1.42;;
76107;SDS011;64834;52.516;10.528;2023-05-03T09:55:38;2.72;;;1.27;;
76107;SDS011;64834;52.516;10.528;2023-05-03T09:58:05;4.35;;;1.75;;
76107;SDS011;64834;52.516;10.528;2023-05-03T10:00:35;6.90;;;1.60;;
76107;SDS011;64834;52.516;10.528;2023-05-03T10:03:01;6.05;;;2.85;;
76107;SDS011;64834;52.516;10.528;2023-05-03T10:05:32;4.55;;;1.60;;
76107;SDS011;64834;52.516;10.528;2023-05-03T10:08:04;4.22;;;1.83;;
76107;SDS011;64834;52.516;10.528;2023-05-03T10:10:31;2.95;;;1.45;;
76107;SDS011;64834;52.516;10.528;2023-05-03T10:12:58;3.47;;;1.52;;
76107;SDS011;64834;52.516;10.528;2023-05-03T10:15:26;4.65;;;1.70;;
76107;SDS011;64834;52.516;10.528;2023-05-03T10:17:56;3.28;;;1.70;;
76107;SDS011;64834;52.516;10.528;2023-05-03T10:20:25;4.05;;;1.60;;
76107;SDS011;64834;52.516;10.528;2023-05-03T10:25:33;4.03;;;1.65;;
76107;SDS011;64834;52.516;10.528;2023-05-03T10:28:00;3.60;;;1.60;;
76107;SDS011;64834;52.516;10.528;2023-05-03T10:30:33;3.45;;;1.42;;
76107;SDS011;64834;52.516;10.528;2023-05-03T10:35:38;3.65;;;1.42;;
76107;SDS011;64834;52.516;10.528;2023-05-03T10:38:13;2.72;;;1.63;;
76107;SDS011;64834;52.516;10.528;2023-05-03T10:40:44;3.90;;;1.33;;
76107;SDS011;64834;52.516;10.528;2023-05-03T10:46:03;3.85;;;1.75;;
76107;SDS011;64834;52.516;10.528;2023-05-03T10:48:30;3.45;;;1.73;;
76107;SDS011;64834;52.516;10.528;2023-05-03T10:50:56;3.05;;;1.48;;
76107;SDS011;64834;52.516;10.528;2023-05-03T10:53:42;4.88;;;2.15;;
76107;SDS011;64834;52.516;10.528;2023-05-03T10:56:10;3.67;;;1.17;;
76107;SDS011;64834;52.516;10.528;2023-05-03T10:58:39;6.03;;;1.60;;
76107;SDS011;64834;52.516;10.528;2023-05-03T11:01:08;4.25;;;1.42;;
76107;SDS011;64834;52.516;10.528;2023-05-03T11:06:33;4.28;;;1.63;;
76107;SDS011;64834;52.516;10.528;2023-05-03T11:09:00;3.63;;;1.20;;
76107;SDS011;64834;52.516;10.528;2023-05-03T11:11:26;3.95;;;2.40;;
76107;SDS011;64834;52.516;10.528;2023-05-03T11:13:52;4.03;;;1.30;;
76107;SDS011;64834;52.516;10.528;2023-05-03T11:16:18;5.10;;;1.20;;
76107;SDS011;64834;52.516;10.528;2023-05-03T11:18:44;3.20;;;1.33;;
76107;SDS011;64834;52.516;10.528;2023-05-03T11:21:10;5.65;;;1.77;;
76107;SDS011;64834;52.516;10.528;2023-05-03T11:23:37;10.63;;;1.80;;
76107;SDS011;64834;52.516;10.528;2023-05-03T11:26:06;2.85;;;1.27;;
76107;SDS011;64834;52.516;10.528;2023-05-03T11:28:38;4.10;;;2.08;;
76107;SDS011;64834;52.516;10.528;2023-05-03T11:31:04;8.82;;;1.83;;
76107;SDS011;64834;52.516;10.528;2023-05-03T11:33:30;4.22;;;1.25;;
76107;SDS011;64834;52.516;10.528;2023-05-03T11:36:00;4.53;;;1.38;;
76107;SDS011;64834;52.516;10.528;2023-05-03T11:38:28;4.18;;;1.60;;
76107;SDS011;64834;52.516;10.528;2023-05-03T11:40:54;7.20;;;1.48;;
76107;SDS011;64834;52.516;10.528;2023-05-03T11:43:20;2.65;;;1.08;;
76107;SDS011;64834;52.516;10.528;2023-05-03T11:45:45;2.75;;;1.38;;
76107;SDS011;64834;52.516;10.528;2023-05-03T11:48:13;2.78;;;1.33;;
76107;SDS011;64834;52.516;10.528;2023-05-03T11:50:46;2.90;;;1.10;;
76107;SDS011;64834;52.516;10.528;2023-05-03T11:53:13;4.05;;;1.02;;
76107;SDS011;64834;52.516;10.528;2023-05-03T11:55:43;3.78;;;1.15;;
76107;SDS011;64834;52.516;10.528;2023-05-03T11:58:13;3.90;;;0.95;;
76107;SDS011;64834;52.516;10.528;2023-05-03T12:00:44;4.32;;;1.20;;
76107;SDS011;64834;52.516;10.528;2023-05-03T12:03:20;3.03;;;1.35;;
76107;SDS011;64834;52.516;10.528;2023-05-03T12:05:46;6.22;;;1.13;;
76107;SDS011;64834;52.516;10.528;2023-05-03T12:08:12;4.00;;;1.00;;
76107;SDS011;64834;52.516;10.528;2023-05-03T12:10:38;5.13;;;1.20;;
76107;SDS011;64834;52.516;10.528;2023-05-03T12:13:05;3.45;;;1.17;;
76107;SDS011;64834;52.516;10.528;2023-05-03T12:15:32;5.80;;;1.20;;
76107;SDS011;64834;52.516;10.528;2023-05-03T12:17:59;4.13;;;1.30;;
76107;SDS011;64834;52.516;10.528;2023-05-03T12:20:25;3.53;;;1.10;;
76107;SDS011;64834;52.516;10.528;2023-05-03T12:23:05;6.53;;;1.20;;
76107;SDS011;64834;52.516;10.528;2023-05-03T12:25:34;3.63;;;1.23;;
76107;SDS011;64834;52.516;10.528;2023-05-03T12:28:01;2.90;;;0.93;;
76107;SDS011;64834;52.516;10.528;2023-05-03T12:30:28;3.60;;;0.93;;
76107;SDS011;64834;52.516;10.528;2023-05-03T12:32:53;4.90;;;1.40;;
76107;SDS011;64834;52.516;10.528;2023-05-03T12:35:19;4.00;;;1.00;;
76107;SDS011;64834;52.516;10.528;2023-05-03T12:37:46;2.85;;;0.80;;
76107;SDS011;64834;52.516;10.528;2023-05-03T12:40:12;3.08;;;1.00;;
76107;SDS011;64834;52.516;10.528;2023-05-03T12:42:38;1.98;;;0.93;;
76107;SDS011;64834;52.516;10.528;2023-05-03T12:45:04;3.42;;;1.33;;
76107;SDS011;64834;52.516;10.528;2023-05-03T12:47:30;3.92;;;1.38;;
76107;SDS011;64834;52.516;10.528;2023-05-03T12:49:55;3.58;;;1.38;;
76107;SDS011;64834;52.516;10.528;2023-05-03T12:52:20;3.50;;;1.50;;
76107;SDS011;64834;52.516;10.528;2023-05-03T12:54:46;2.92;;;1.20;;
76107;SDS011;64834;52.516;10.528;2023-05-03T12:57:12;3.10;;;1.83;;
76107;SDS011;64834;52.516;10.528;2023-05-03T12:59:38;5.35;;;1.25;;
76107;SDS011;64834;52.516;10.528;2023-05-03T13:02:05;4.75;;;1.48;;
76107;SDS011;64834;52.516;10.528;2023-05-03T13:04:31;3.92;;;1.10;;
76107;SDS011;64834;52.516;10.528;2023-05-03T13:06:57;3.45;;;1.35;;
76107;SDS011;64834;52.516;10.528;2023-05-03T13:09:22;3.78;;;1.30;;
76107;SDS011;64834;52.516;10.528;2023-05-03T13:11:48;2.85;;;1.10;;
76107;SDS011;64834;52.516;10.528;2023-05-03T13:14:16;2.65;;;1.45;;
76107;SDS011;64834;52.516;10.528;2023-05-03T13:16:41;3.65;;;1.00;;
76107;SDS011;64834;52.516;10.528;2023-05-03T13:19:08;2.53;;;1.00;;
76107;SDS011;64834;52.516;10.528;2023-05-03T13:21:33;1.35;;;0.80;;
76107;SDS011;64834;52.516;10.528;2023-05-03T13:23:59;7.13;;;1.50;;
76107;SDS011;64834;52.516;10.528;2023-05-03T13:26:24;2.90;;;0.98;;
76107;SDS011;64834;52.516;10.528;2023-05-03T13:28:49;5.20;;;1.20;;
76107;SDS011;64834;52.516;10.528;2023-05-03T13:31:15;3.20;;;1.17;;
76107;SDS011;64834;52.516;10.528;2023-05-03T13:33:40;2.92;;;1.00;;
76107;SDS011;64834;52.516;10.528;2023-05-03T13:36:06;3.53;;;1.20;;
76107;SDS011;64834;52.516;10.528;2023-05-03T13:38:32;2.88;;;1.10;;
76107;SDS011;64834;52.516;10.528;2023-05-03T13:40:57;2.33;;;1.10;;
76107;SDS011;64834;52.516;10.528;2023-05-03T13:43:23;3.22;;;1.05;;
76107;SDS011;64834;52.516;10.528;2023-05-03T13:45:49;4.28;;;1.20;;
76107;SDS011;64834;52.516;10.528;2023-05-03T13:48:16;4.82;;;1.27;;
76107;SDS011;64834;52.516;10.528;2023-05-03T13:50:41;3.90;;;1.23;;
76107;SDS011;64834;52.516;10.528;2023-05-03T13:53:07;3.35;;;1.15;;
76107;SDS011;64834;52.516;10.528;2023-05-03T13:55:32;2.33;;;0.90;;
76107;SDS011;64834;52.516;10.528;2023-05-03T13:57:57;3.75;;;1.00;;
76107;SDS011;64834;52.516;10.528;2023-05-03T14:00:23;5.95;;;1.08;;
76107;SDS011;64834;52.516;10.528;2023-05-03T14:02:48;3.95;;;1.13;;
76107;SDS011;64834;52.516;10.528;2023-05-03T14:05:15;3.90;;;1.55;;
76107;SDS011;64834;52.516;10.528;2023-05-03T14:07:40;1.77;;;0.80;;
76107;SDS011;64834;52.516;10.528;2023-05-03T14:10:06;3.80;;;1.17;;
76107;SDS011;64834;52.516;10.528;2023-05-03T14:12:31;2.00;;;1.02;;
76107;SDS011;64834;52.516;10.528;2023-05-03T14:15:01;2.55;;;1.02;;
76107;SDS011;64834;52.516;10.528;2023-05-03T14:17:30;2.15;;;0.85;;
76107;SDS011;64834;52.516;10.528;2023-05-03T14:19:59;2.08;;;1.20;;
76107;SDS011;64834;52.516;10.528;2023-05-03T14:22:25;2.63;;;1.08;;
76107;SDS011;64834;52.516;10.528;2023-05-03T14:24:50;2.38;;;0.93;;
76107;SDS011;64834;52.516;10.528;2023-05-03T14:27:16;3.05;;;1.08;;
76107;SDS011;64834;52.516;10.528;2023-05-03T14:29:45;3.05;;;1.50;;
76107;SDS011;64834;52.516;10.528;2023-05-03T14:32:11;4.15;;;0.90;;
76107;SDS011;64834;52.516;10.528;2023-05-03T14:34:36;3.15;;;1.00;;
76107;SDS011;64834;52.516;10.528;2023-05-03T14:37:02;2.85;;;0.98;;
76107;SDS011;64834;52.516;10.528;2023-05-03T14:39:28;2.47;;;1.25;;
76107;SDS011;64834;52.516;10.528;2023-05-03T14:41:53;4.65;;;1.15;;
76107;SDS011;64834;52.516;10.528;2023-05-03T14:44:19;5.93;;;1.40;;
76107;SDS011;64834;52.516;10.528;2023-05-03T14:46:44;3.13;;;1.20;;
76107;SDS011;64834;52.516;10.528;2023-05-03T14:49:10;2.58;;;1.00;;
76107;SDS011;64834;52.516;10.528;2023-05-03T14:51:36;2.85;;;1.00;;
76107;SDS011;64834;52.516;10.528;2023-05-03T14:54:01;2.83;;;0.90;;